Latest Weather Observations for Broome Port

IDW60801

Issued at 4:43 pm WST Sunday 24 January 2021 (issued every 10 minutes, with the page automatically refreshed every 10 minutes)

About weather observations | Map of weather stations | Latest weather observations for WA | Other Formats
Station Details ID: 003102 Name: BROOME NTC AWS Lat: -18.00 Lon: 122.22 Height: 0.0 m
Data from the previous 72 hours. | See also: Recent months for locations in Western Australia
Date/Time
WST
Temp
°C
App
Temp
°C
Dew
Point
°C
Rel
Hum
%
Delta-T
°C
Wind Press
QNH
hPa
Press
MSL
hPa
Rain since
9am
mm
Dir  Spd
km/h
Gust
km/h
Spd
kts
Gust
kts
24/04:30pm 30.4 - - - - W 22 26 12 14 1001.8 1001.7 -
24/04:00pm 30.3 - - - - W 24 32 13 17 1001.9 1001.8 -
24/03:30pm 30.5 - - - - W 24 30 13 16 1002.1 1002.0 -
24/03:00pm 30.4 - - - - WSW 22 28 12 15 1002.5 1002.4 -
24/02:30pm 30.6 - - - - W 22 28 12 15 1002.8 1002.7 -
24/02:00pm 30.3 - - - - W 22 28 12 15 1003.2 1003.1 -
24/01:30pm 30.4 - - - - W 22 28 12 15 1003.6 1003.5 -
24/01:00pm 30.4 - - - - W 22 28 12 15 1003.9 1003.8 -
24/12:30pm 30.5 - - - - W 24 32 13 17 1004.1 1004.0 -
24/12:00pm 30.3 - - - - W 24 32 13 17 1004.5 1004.4 -
24/11:30am 30.5 - - - - W 24 28 13 15 1004.8 1004.7 -
24/11:00am 30.4 - - - - W 24 28 13 15 1005.0 1004.9 -
24/10:30am 30.2 - - - - W 24 32 13 17 1005.2 1005.1 -
24/10:00am 30.3 - - - - WNW 26 32 14 17 1005.4 1005.3 -
24/09:30am 30.1 - - - - W 24 32 13 17 1005.4 1005.3 -
24/09:00am 30.0 - - - - WNW 26 35 14 19 1005.4 1005.3 -
24/08:30am 29.8 - - - - WNW 26 35 14 19 1005.4 1005.3 -
24/08:00am 29.7 - - - - WNW 26 33 14 18 1005.4 1005.3 -
24/07:30am 29.6 - - - - WNW 26 33 14 18 1005.1 1005.0 -
24/07:00am 29.5 - - - - WNW 26 33 14 18 1004.8 1004.7 -
24/06:30am 29.5 - - - - WNW 24 33 13 18 1004.7 1004.6 -
24/06:00am 29.4 - - - - WNW 20 28 11 15 1004.3 1004.2 -
24/05:30am 29.3 - - - - WNW 19 28 10 15 1003.7 1003.6 -
24/05:00am 29.4 - - - - WNW 19 28 10 15 1003.4 1003.3 -
24/04:30am 29.5 - - - - WNW 24 32 13 17 1003.2 1003.1 -
24/04:00am 29.4 - - - - WNW 22 28 12 15 1002.9 1002.8 -
24/03:30am 29.5 - - - - WNW 24 32 13 17 1002.8 1002.7 -
24/03:00am 29.4 - - - - W 24 32 13 17 1002.7 1002.6 -
24/02:30am 29.5 - - - - WNW 24 33 13 18 1002.7 1002.6 -
24/02:00am 29.5 - - - - WNW 26 32 14 17 1002.7 1002.6 -
24/01:30am 29.6 - - - - W 28 33 15 18 1002.8 1002.7 -
24/01:00am 29.6 - - - - WNW 28 35 15 19 1003.1 1003.0 -
24/12:30am 29.6 - - - - WNW 26 32 14 17 1003.5 1003.4 -
24/12:00am 29.7 - - - - WNW 24 28 13 15 1003.8 1003.7 -
 
Date/Time
WST
Temp
°C
App
Temp
°C
Dew
Point
°C
Rel
Hum
%
Delta-T
°C
Wind Press
QNH
hPa
Press
MSL
hPa
Rain since
9am
mm
Dir  Spd
km/h
Gust
km/h
Spd
kts
Gust
kts
23/11:30pm 29.8 - - - - WNW 22 28 12 15 1004.1 1004.0 -
23/11:00pm 29.8 - - - - WNW 22 26 12 14 1004.5 1004.4 -
23/10:30pm 29.9 - - - - WNW 20 26 11 14 1004.8 1004.7 -
23/10:00pm 30.0 - - - - W 22 26 12 14 1004.9 1004.8 -
23/09:30pm 30.1 - - - - W 22 28 12 15 1004.9 1004.8 -
23/09:00pm 30.1 - - - - W 22 30 12 16 1004.7 1004.6 -
23/08:30pm 30.2 - - - - W 22 28 12 15 1004.3 1004.2 -
23/08:00pm 30.2 - - - - W 22 30 12 16 1004.0 1003.9 -
23/07:30pm 30.4 - - - - W 22 32 12 17 1003.7 1003.6 -
23/07:00pm 30.3 - - - - W 24 33 13 18 1003.5 1003.4 -
23/06:30pm 30.3 - - - - W 24 30 13 16 1003.3 1003.2 -
23/06:00pm 30.4 - - - - W 24 32 13 17 1003.1 1003.0 -
23/05:30pm 30.4 - - - - W 28 37 15 20 1002.7 1002.6 -
23/05:00pm 30.5 - - - - W 28 35 15 19 1002.5 1002.4 -
23/04:30pm 30.4 - - - - W 30 37 16 20 1002.6 1002.5 -
23/04:00pm 29.6 - - - - WNW 24 28 13 15 1002.3 1002.2 -
23/03:30pm 29.8 - - - - WNW 24 30 13 16 1002.2 1002.1 -
23/03:00pm 29.3 - - - - WNW 26 33 14 18 1002.5 1002.4 -
23/02:30pm 27.9 - - - - NW 24 33 13 18 1002.3 1002.2 -
23/02:00pm 29.9 - - - - NW 26 37 14 20 1002.1 1002.0 -
23/01:30pm 30.0 - - - - WNW 33 39 18 21 1002.3 1002.2 -
23/01:00pm 29.7 - - - - WNW 26 39 14 21 1002.4 1002.3 -
23/12:30pm 30.0 - - - - WNW 30 39 16 21 1002.5 1002.4 -
23/12:00pm 30.2 - - - - W 30 35 16 19 1002.6 1002.5 -
23/11:30am 29.8 - - - - WNW 28 33 15 18 1002.7 1002.6 -
23/11:00am 29.8 - - - - WNW 32 39 17 21 1003.0 1002.9 -
23/10:30am 29.1 - - - - WNW 28 39 15 21 1003.2 1003.1 -
23/10:00am 30.4 - - - - NW 22 30 12 16 1003.3 1003.2 -
23/09:30am 30.3 - - - - NW 24 32 13 17 1003.9 1003.8 -
23/09:00am 30.1 - - - - WNW 30 39 16 21 1003.8 1003.7 -
23/08:30am 30.3 - - - - W 33 41 18 22 1003.6 1003.5 -
23/08:00am 30.1 - - - - WNW 37 46 20 25 1003.2 1003.1 -
23/07:30am 30.0 - - - - WNW 32 41 17 22 1002.7 1002.6 -
23/07:00am 30.1 - - - - WNW 32 41 17 22 1002.6 1002.5 -
23/06:30am 29.9 - - - - WNW 30 37 16 20 1002.1 1002.0 -
23/06:00am 29.7 - - - - WNW 30 43 16 23 1002.0 1001.9 -
23/05:30am 29.6 - - - - WNW 30 39 16 21 1001.9 1001.8 -
23/05:00am 29.5 - - - - WNW 30 37 16 20 1001.3 1001.2 -
23/04:30am 29.4 - - - - WNW 32 43 17 23 1001.0 1000.9 -
23/04:00am 29.4 - - - - WNW 32 41 17 22 1000.6 1000.5 -
23/03:30am 29.3 - - - - W 33 43 18 23 1000.6 1000.5 -
23/03:00am 29.3 - - - - WNW 33 44 18 24 1000.6 1000.5 -
23/02:30am 29.1 - - - - WNW 33 43 18 23 1000.4 1000.3 -
23/02:00am 29.0 - - - - WNW 32 41 17 22 1000.5 1000.4 -
23/01:30am 28.9 - - - - WNW 32 43 17 23 1000.7 1000.6 -
23/01:00am 28.8 - - - - NW 28 41 15 22 1000.7 1000.6 -
23/12:30am 28.8 - - - - NW 28 35 15 19 1001.1 1001.0 -
23/12:00am 28.8 - - - - WNW 28 35 15 19 1001.5 1001.4 -
 
Date/Time
WST
Temp
°C
App
Temp
°C
Dew
Point
°C
Rel
Hum
%
Delta-T
°C
Wind Press
QNH
hPa
Press
MSL
hPa
Rain since
9am
mm
Dir  Spd
km/h
Gust
km/h
Spd
kts
Gust
kts
22/11:30pm 28.8 - - - - WNW 28 39 15 21 1001.6 1001.5 -
22/11:00pm 28.4 - - - - NW 24 33 13 18 1002.0 1001.9 -
22/10:30pm 28.6 - - - - NW 22 28 12 15 1002.2 1002.1 -
22/10:00pm 28.6 - - - - NW 22 30 12 16 1002.0 1001.9 -
22/09:30pm 28.7 - - - - WNW 24 33 13 18 1001.7 1001.6 -
22/09:00pm 28.7 - - - - WNW 20 26 11 14 1001.3 1001.2 -
22/08:30pm 28.9 - - - - WNW 24 30 13 16 1001.2 1001.1 -
22/08:00pm 29.1 - - - - WNW 26 33 14 18 1001.1 1001.0 -
22/07:30pm 29.1 - - - - WNW 26 33 14 18 1000.7 1000.6 -
22/07:00pm 29.2 - - - - WNW 26 35 14 19 1000.1 1000.0 -
22/06:30pm 29.2 - - - - WNW 28 37 15 20 999.8 999.7 -
22/06:00pm 29.1 - - - - WNW 30 41 16 22 999.5 999.4 -
22/05:30pm 29.3 - - - - WNW 33 44 18 24 999.3 999.2 -
22/05:00pm 29.1 - - - - WNW 26 39 14 21 999.1 999.0 -
22/04:30pm 28.2 - - - - NW 26 32 14 17 999.0 998.9 -
22/04:00pm 28.4 - - - - WNW 24 32 13 17 999.0 998.9 -
22/03:30pm 27.9 - - - - WNW 39 52 21 28 998.9 998.8 -
22/03:02pm 27.8 - - - - NW 32 50 17 27 998.7 998.6 -
22/03:00pm 27.6 - - - - NW 33 50 18 27 998.8 998.7 -
22/02:30pm 29.2 - - - - NNW 32 43 17 23 998.9 998.8 -
22/02:00pm 28.8 - - - - NNW 30 50 16 27 999.1 999.0 -
22/01:30pm 27.2 - - - - NNW 19 35 10 19 999.7 999.6 -
22/01:00pm 27.3 - - - - N 28 44 15 24 999.9 999.8 -
22/12:30pm 28.2 - - - - N 30 43 16 23 1000.4 1000.3 -
22/12:02pm 29.5 - - - - N 33 54 18 29 1000.5 1000.4 -
22/12:00pm 29.6 - - - - N 32 46 17 25 1000.6 1000.5 -
22/11:30am 27.9 - - - - NW 24 33 13 18 1001.0 1000.9 -
22/11:14am 27.2 - - - - NW 37 48 20 26 1001.1 1001.0 -
22/11:00am 29.5 - - - - N 39 54 21 29 1001.3 1001.2 -
22/10:30am 28.9 - - - - N 30 43 16 23 1001.7 1001.6 -
22/10:00am 27.9 - - - - N 32 43 17 23 1001.6 1001.5 -
22/09:30am 27.2 - - - - NNE 30 37 16 20 1001.8 1001.7 -
22/09:00am 26.9 - - - - NNE 32 41 17 22 1001.9 1001.8 -
22/08:30am 26.5 - - - - NNE 32 41 17 22 1001.8 1001.7 -
22/08:00am 26.8 - - - - NNE 30 39 16 21 1001.7 1001.6 -
22/07:30am 26.6 - - - - NNE 26 37 14 20 1001.9 1001.8 -
22/07:00am 27.2 - - - - NNE 35 41 19 22 1001.8 1001.7 -
22/06:30am 27.1 - - - - NNE 33 46 18 25 1001.5 1001.4 -
22/06:00am 27.3 - - - - NE 30 44 16 24 1001.3 1001.2 -
22/05:30am 26.8 - - - - NE 26 33 14 18 1001.3 1001.2 -
22/05:00am 26.6 - - - - NE 26 39 14 21 1001.2 1001.1 -
22/04:30am 26.0 - - - - NNE 33 52 18 28 1001.4 1001.3 -
22/04:25am 26.0 - - - - NNE 32 52 17 28 1001.4 1001.3 -
22/04:00am 27.0 - - - - NE 22 32 12 17 1001.2 1001.1 -
22/03:30am 27.1 - - - - ENE 28 39 15 21 1000.5 1000.4 -
22/03:00am 27.2 - - - - ENE 33 43 18 23 1000.4 1000.3 -
22/02:30am 27.4 - - - - ENE 33 43 18 23 1001.1 1001.0 -
22/02:16am 27.6 - - - - ENE 30 48 16 26 1001.3 1001.2 -
22/02:00am 27.4 - - - - NE 28 39 15 21 1001.7 1001.6 -
22/01:30am 27.3 - - - - ENE 33 46 18 25 1001.4 1001.3 -
22/01:00am 27.4 - - - - ENE 32 44 17 24 1001.7 1001.6 -
22/12:30am 27.2 - - - - ENE 39 44 21 24 1002.4 1002.3 -
22/12:00am 27.6 - - - - ENE 39 48 21 26 1002.7 1002.6 -
 
Date/Time
WST
Temp
°C
App
Temp
°C
Dew
Point
°C
Rel
Hum
%
Delta-T
°C
Wind Press
QNH
hPa
Press
MSL
hPa
Rain since
9am
mm
Dir  Spd
km/h
Gust
km/h
Spd
kts
Gust
kts
21/11:30pm 27.6 - - - - E 37 43 20 23 1003.3 1003.2 -
21/11:00pm 27.5 - - - - ENE 33 41 18 22 1003.5 1003.4 -
21/10:30pm 27.5 - - - - E 33 41 18 22 1004.2 1004.1 -
21/10:00pm 27.6 - - - - ENE 33 39 18 21 1004.5 1004.4 -
21/09:30pm 27.5 - - - - ENE 30 37 16 20 1004.4 1004.3 -
21/09:00pm 27.4 - - - - ENE 37 43 20 23 1003.6 1003.5 -
21/08:30pm 27.2 - - - - ENE 35 39 19 21 1003.9 1003.8 -
21/08:00pm 27.3 - - - - ENE 33 41 18 22 1003.8 1003.7 -
21/07:30pm 27.3 - - - - ENE 37 43 20 23 1003.4 1003.3 -
21/07:00pm 27.3 - - - - ENE 33 41 18 22 1002.9 1002.8 -
21/06:30pm 27.2 - - - - ENE 30 37 16 20 1002.8 1002.7 -
21/06:00pm 27.2 - - - - NE 24 33 13 18 1002.7 1002.6 -
21/05:30pm 27.6 - - - - NE 24 35 13 19 1002.9 1002.8 -
21/05:00pm 27.7 - - - - NE 20 30 11 16 1002.6 1002.5 -

Other formats

Comma delimited format used in spreadsheet applications
http://www.bom.gov.au/fwo/IDW60801/IDW60801.95202.axf

JavaScript Object Notation format (JSON) in row-major order
http://www.bom.gov.au/fwo/IDW60801/IDW60801.95202.json

Data quality

Most of these data are generated automatically and are frequently updated. Quality checks on data are not normally performed. It is possible for incorrect values to appear. Refer to information at About Latest Weather Observations and please check the disclaimer before using these data.